sensor_id;sensor_type;location;lat;lon;timestamp;P1;durP1;ratioP1;P2;durP2;ratioP2
44862;SDS011;30597;49.628;10.850;2022-11-09T00:00:37;5.00;;;3.90;;
44862;SDS011;30597;49.628;10.850;2022-11-09T00:03:03;4.20;;;3.40;;
44862;SDS011;30597;49.628;10.850;2022-11-09T00:05:29;3.83;;;3.43;;
44862;SDS011;30597;49.628;10.850;2022-11-09T00:07:55;4.20;;;3.80;;
44862;SDS011;30597;49.628;10.850;2022-11-09T00:10:20;3.57;;;3.27;;
44862;SDS011;30597;49.628;10.850;2022-11-09T00:12:46;4.33;;;4.03;;
44862;SDS011;30597;49.628;10.850;2022-11-09T00:15:11;5.87;;;3.83;;
44862;SDS011;30597;49.628;10.850;2022-11-09T00:17:37;4.70;;;4.30;;
44862;SDS011;30597;49.628;10.850;2022-11-09T00:20:03;3.70;;;3.40;;
44862;SDS011;30597;49.628;10.850;2022-11-09T00:22:29;3.43;;;3.13;;
44862;SDS011;30597;49.628;10.850;2022-11-09T00:24:54;3.77;;;3.40;;
44862;SDS011;30597;49.628;10.850;2022-11-09T00:27:20;3.50;;;3.20;;
44862;SDS011;30597;49.628;10.850;2022-11-09T00:29:45;3.80;;;3.20;;
44862;SDS011;30597;49.628;10.850;2022-11-09T00:32:11;4.00;;;3.60;;
44862;SDS011;30597;49.628;10.850;2022-11-09T00:34:36;4.00;;;3.60;;
44862;SDS011;30597;49.628;10.850;2022-11-09T00:37:02;3.77;;;3.37;;
44862;SDS011;30597;49.628;10.850;2022-11-09T00:39:27;3.80;;;3.40;;
44862;SDS011;30597;49.628;10.850;2022-11-09T00:41:53;3.43;;;3.13;;
44862;SDS011;30597;49.628;10.850;2022-11-09T00:44:19;3.63;;;3.33;;
44862;SDS011;30597;49.628;10.850;2022-11-09T00:46:44;3.97;;;3.63;;
44862;SDS011;30597;49.628;10.850;2022-11-09T00:49:10;5.20;;;3.87;;
44862;SDS011;30597;49.628;10.850;2022-11-09T00:51:36;3.90;;;3.50;;
44862;SDS011;30597;49.628;10.850;2022-11-09T00:54:01;3.90;;;3.60;;
44862;SDS011;30597;49.628;10.850;2022-11-09T00:56:27;3.47;;;3.13;;
44862;SDS011;30597;49.628;10.850;2022-11-09T00:58:53;4.60;;;3.77;;
44862;SDS011;30597;49.628;10.850;2022-11-09T01:01:22;3.30;;;2.93;;
44862;SDS011;30597;49.628;10.850;2022-11-09T01:03:48;3.03;;;2.70;;
44862;SDS011;30597;49.628;10.850;2022-11-09T01:06:18;3.97;;;3.57;;
44862;SDS011;30597;49.628;10.850;2022-11-09T01:08:45;3.90;;;3.20;;
44862;SDS011;30597;49.628;10.850;2022-11-09T01:11:11;3.57;;;3.27;;
44862;SDS011;30597;49.628;10.850;2022-11-09T01:13:37;3.90;;;3.60;;
44862;SDS011;30597;49.628;10.850;2022-11-09T01:16:05;4.90;;;3.40;;
44862;SDS011;30597;49.628;10.850;2022-11-09T01:18:32;3.40;;;3.10;;
44862;SDS011;30597;49.628;10.850;2022-11-09T01:20:58;3.53;;;3.20;;
44862;SDS011;30597;49.628;10.850;2022-11-09T01:23:27;4.23;;;3.93;;
44862;SDS011;30597;49.628;10.850;2022-11-09T01:25:59;3.50;;;3.20;;
44862;SDS011;30597;49.628;10.850;2022-11-09T01:28:26;3.43;;;3.13;;
44862;SDS011;30597;49.628;10.850;2022-11-09T01:30:52;4.00;;;3.07;;
44862;SDS011;30597;49.628;10.850;2022-11-09T01:33:18;3.30;;;3.00;;
44862;SDS011;30597;49.628;10.850;2022-11-09T01:35:44;3.50;;;3.20;;
44862;SDS011;30597;49.628;10.850;2022-11-09T01:38:09;3.90;;;2.90;;
44862;SDS011;30597;49.628;10.850;2022-11-09T01:40:36;4.10;;;3.60;;
44862;SDS011;30597;49.628;10.850;2022-11-09T01:43:13;3.10;;;2.80;;
44862;SDS011;30597;49.628;10.850;2022-11-09T01:45:47;4.40;;;2.93;;
44862;SDS011;30597;49.628;10.850;2022-11-09T01:48:39;3.70;;;3.40;;
44862;SDS011;30597;49.628;10.850;2022-11-09T01:51:13;3.63;;;3.33;;
44862;SDS011;30597;49.628;10.850;2022-11-09T01:53:44;3.50;;;3.20;;
44862;SDS011;30597;49.628;10.850;2022-11-09T01:56:14;3.23;;;3.03;;
44862;SDS011;30597;49.628;10.850;2022-11-09T01:58:43;3.00;;;2.80;;
44862;SDS011;30597;49.628;10.850;2022-11-09T02:01:13;3.60;;;3.20;;
44862;SDS011;30597;49.628;10.850;2022-11-09T02:03:49;3.40;;;2.77;;
44862;SDS011;30597;49.628;10.850;2022-11-09T02:06:20;3.40;;;2.97;;
44862;SDS011;30597;49.628;10.850;2022-11-09T02:08:48;3.00;;;2.80;;
44862;SDS011;30597;49.628;10.850;2022-11-09T02:11:18;3.03;;;2.67;;
44862;SDS011;30597;49.628;10.850;2022-11-09T02:13:47;4.40;;;3.60;;
44862;SDS011;30597;49.628;10.850;2022-11-09T02:16:17;3.40;;;3.10;;
44862;SDS011;30597;49.628;10.850;2022-11-09T02:18:55;2.93;;;2.67;;
44862;SDS011;30597;49.628;10.850;2022-11-09T02:21:23;3.30;;;3.00;;
44862;SDS011;30597;49.628;10.850;2022-11-09T02:23:51;2.70;;;2.50;;
44862;SDS011;30597;49.628;10.850;2022-11-09T02:26:24;3.70;;;3.17;;
44862;SDS011;30597;49.628;10.850;2022-11-09T02:29:00;3.30;;;3.00;;
44862;SDS011;30597;49.628;10.850;2022-11-09T02:31:30;3.00;;;2.80;;
44862;SDS011;30597;49.628;10.850;2022-11-09T02:34:18;4.53;;;2.80;;
44862;SDS011;30597;49.628;10.850;2022-11-09T02:36:45;3.63;;;3.33;;
44862;SDS011;30597;49.628;10.850;2022-11-09T02:39:12;2.93;;;2.63;;
44862;SDS011;30597;49.628;10.850;2022-11-09T02:41:45;2.93;;;2.70;;
44862;SDS011;30597;49.628;10.850;2022-11-09T02:44:14;3.10;;;2.80;;
44862;SDS011;30597;49.628;10.850;2022-11-09T02:46:42;2.70;;;2.50;;
44862;SDS011;30597;49.628;10.850;2022-11-09T02:49:07;2.60;;;2.40;;
44862;SDS011;30597;49.628;10.850;2022-11-09T02:51:33;3.47;;;3.17;;
44862;SDS011;30597;49.628;10.850;2022-11-09T02:53:58;3.00;;;2.70;;
44862;SDS011;30597;49.628;10.850;2022-11-09T02:56:24;3.50;;;3.00;;
44862;SDS011;30597;49.628;10.850;2022-11-09T02:58:49;3.07;;;2.77;;
44862;SDS011;30597;49.628;10.850;2022-11-09T03:01:15;3.47;;;2.70;;
44862;SDS011;30597;49.628;10.850;2022-11-09T03:03:41;3.80;;;3.50;;
44862;SDS011;30597;49.628;10.850;2022-11-09T03:06:06;2.77;;;2.57;;
44862;SDS011;30597;49.628;10.850;2022-11-09T03:08:32;2.40;;;2.20;;
44862;SDS011;30597;49.628;10.850;2022-11-09T03:10:58;2.73;;;2.30;;
44862;SDS011;30597;49.628;10.850;2022-11-09T03:13:24;2.70;;;2.50;;
44862;SDS011;30597;49.628;10.850;2022-11-09T03:15:50;3.17;;;2.37;;
44862;SDS011;30597;49.628;10.850;2022-11-09T03:18:15;2.67;;;2.43;;
44862;SDS011;30597;49.628;10.850;2022-11-09T03:20:41;3.23;;;2.80;;
44862;SDS011;30597;49.628;10.850;2022-11-09T03:23:06;3.57;;;3.23;;
44862;SDS011;30597;49.628;10.850;2022-11-09T03:25:32;2.73;;;2.53;;
44862;SDS011;30597;49.628;10.850;2022-11-09T03:27:58;3.10;;;2.63;;
44862;SDS011;30597;49.628;10.850;2022-11-09T03:30:25;3.33;;;3.03;;
44862;SDS011;30597;49.628;10.850;2022-11-09T03:32:56;3.00;;;2.50;;
44862;SDS011;30597;49.628;10.850;2022-11-09T03:35:25;2.47;;;2.27;;
44862;SDS011;30597;49.628;10.850;2022-11-09T03:37:51;2.77;;;2.57;;
44862;SDS011;30597;49.628;10.850;2022-11-09T03:40:17;2.83;;;2.63;;
44862;SDS011;30597;49.628;10.850;2022-11-09T03:42:44;3.10;;;2.80;;
44862;SDS011;30597;49.628;10.850;2022-11-09T03:45:10;2.60;;;2.40;;
44862;SDS011;30597;49.628;10.850;2022-11-09T03:47:40;3.27;;;2.97;;
44862;SDS011;30597;49.628;10.850;2022-11-09T03:50:09;2.60;;;2.40;;
44862;SDS011;30597;49.628;10.850;2022-11-09T03:52:36;3.00;;;2.77;;
44862;SDS011;30597;49.628;10.850;2022-11-09T03:55:02;2.93;;;2.63;;
44862;SDS011;30597;49.628;10.850;2022-11-09T03:57:29;2.87;;;2.63;;
44862;SDS011;30597;49.628;10.850;2022-11-09T03:59:54;2.70;;;2.50;;
44862;SDS011;30597;49.628;10.850;2022-11-09T04:02:20;2.90;;;2.70;;
44862;SDS011;30597;49.628;10.850;2022-11-09T04:04:45;3.20;;;2.70;;
44862;SDS011;30597;49.628;10.850;2022-11-09T04:07:12;2.47;;;2.00;;
44862;SDS011;30597;49.628;10.850;2022-11-09T04:09:37;2.70;;;2.50;;
44862;SDS011;30597;49.628;10.850;2022-11-09T04:12:03;2.63;;;2.43;;
44862;SDS011;30597;49.628;10.850;2022-11-09T04:14:29;3.20;;;2.40;;
44862;SDS011;30597;49.628;10.850;2022-11-09T04:16:54;3.50;;;2.70;;
44862;SDS011;30597;49.628;10.850;2022-11-09T04:19:20;2.50;;;2.30;;
44862;SDS011;30597;49.628;10.850;2022-11-09T04:21:46;3.03;;;2.83;;
44862;SDS011;30597;49.628;10.850;2022-11-09T04:24:12;2.57;;;2.37;;
44862;SDS011;30597;49.628;10.850;2022-11-09T04:26:38;2.70;;;2.50;;
44862;SDS011;30597;49.628;10.850;2022-11-09T04:29:03;2.13;;;2.03;;
44862;SDS011;30597;49.628;10.850;2022-11-09T04:31:29;2.43;;;2.23;;
44862;SDS011;30597;49.628;10.850;2022-11-09T04:33:54;2.80;;;2.30;;
44862;SDS011;30597;49.628;10.850;2022-11-09T04:36:20;2.83;;;2.60;;
44862;SDS011;30597;49.628;10.850;2022-11-09T04:38:46;2.53;;;2.00;;
44862;SDS011;30597;49.628;10.850;2022-11-09T04:41:12;3.20;;;3.00;;
44862;SDS011;30597;49.628;10.850;2022-11-09T04:43:37;2.50;;;2.30;;
44862;SDS011;30597;49.628;10.850;2022-11-09T04:46:03;2.60;;;2.40;;
44862;SDS011;30597;49.628;10.850;2022-11-09T04:48:29;2.13;;;1.93;;
44862;SDS011;30597;49.628;10.850;2022-11-09T04:51:03;2.17;;;2.00;;
44862;SDS011;30597;49.628;10.850;2022-11-09T04:53:33;2.70;;;2.50;;
44862;SDS011;30597;49.628;10.850;2022-11-09T04:55:59;3.07;;;2.10;;
44862;SDS011;30597;49.628;10.850;2022-11-09T04:58:24;2.77;;;2.57;;
44862;SDS011;30597;49.628;10.850;2022-11-09T05:00:52;2.20;;;2.00;;
44862;SDS011;30597;49.628;10.850;2022-11-09T05:03:17;2.03;;;1.93;;
44862;SDS011;30597;49.628;10.850;2022-11-09T05:05:43;2.50;;;2.30;;
44862;SDS011;30597;49.628;10.850;2022-11-09T05:08:09;2.30;;;2.10;;
44862;SDS011;30597;49.628;10.850;2022-11-09T05:10:36;2.70;;;2.37;;
44862;SDS011;30597;49.628;10.850;2022-11-09T05:13:02;2.30;;;2.10;;
44862;SDS011;30597;49.628;10.850;2022-11-09T05:15:29;2.80;;;2.60;;
44862;SDS011;30597;49.628;10.850;2022-11-09T05:17:55;2.57;;;2.37;;
44862;SDS011;30597;49.628;10.850;2022-11-09T05:20:22;2.33;;;2.10;;
44862;SDS011;30597;49.628;10.850;2022-11-09T05:22:48;3.10;;;2.50;;
44862;SDS011;30597;49.628;10.850;2022-11-09T05:25:32;2.87;;;2.20;;
44862;SDS011;30597;49.628;10.850;2022-11-09T05:27:58;2.57;;;2.00;;
44862;SDS011;30597;49.628;10.850;2022-11-09T05:30:24;2.23;;;2.03;;
44862;SDS011;30597;49.628;10.850;2022-11-09T05:32:49;3.53;;;2.40;;
44862;SDS011;30597;49.628;10.850;2022-11-09T05:35:15;2.20;;;2.00;;
44862;SDS011;30597;49.628;10.850;2022-11-09T05:37:41;2.90;;;2.57;;
44862;SDS011;30597;49.628;10.850;2022-11-09T05:40:07;2.63;;;2.43;;
44862;SDS011;30597;49.628;10.850;2022-11-09T05:42:33;2.90;;;2.57;;
44862;SDS011;30597;49.628;10.850;2022-11-09T05:45:02;1.90;;;1.80;;
44862;SDS011;30597;49.628;10.850;2022-11-09T05:47:28;2.27;;;2.07;;
44862;SDS011;30597;49.628;10.850;2022-11-09T05:49:53;2.50;;;2.30;;
44862;SDS011;30597;49.628;10.850;2022-11-09T05:52:19;2.37;;;2.10;;
44862;SDS011;30597;49.628;10.850;2022-11-09T05:54:44;2.30;;;2.10;;
44862;SDS011;30597;49.628;10.850;2022-11-09T05:57:10;2.57;;;2.37;;
44862;SDS011;30597;49.628;10.850;2022-11-09T05:59:35;2.93;;;2.30;;
44862;SDS011;30597;49.628;10.850;2022-11-09T06:02:01;2.10;;;2.00;;
44862;SDS011;30597;49.628;10.850;2022-11-09T06:04:27;2.90;;;2.23;;
44862;SDS011;30597;49.628;10.850;2022-11-09T06:06:52;2.20;;;1.97;;
44862;SDS011;30597;49.628;10.850;2022-11-09T06:09:18;3.33;;;2.03;;
44862;SDS011;30597;49.628;10.850;2022-11-09T06:11:43;3.43;;;2.20;;
44862;SDS011;30597;49.628;10.850;2022-11-09T06:14:09;2.13;;;1.93;;
44862;SDS011;30597;49.628;10.850;2022-11-09T06:16:35;2.00;;;1.80;;
44862;SDS011;30597;49.628;10.850;2022-11-09T06:19:00;2.53;;;2.33;;
44862;SDS011;30597;49.628;10.850;2022-11-09T06:21:26;2.60;;;2.40;;
44862;SDS011;30597;49.628;10.850;2022-11-09T06:23:51;2.77;;;2.03;;
44862;SDS011;30597;49.628;10.850;2022-11-09T06:26:17;2.43;;;2.23;;
44862;SDS011;30597;49.628;10.850;2022-11-09T06:28:42;2.27;;;2.07;;
44862;SDS011;30597;49.628;10.850;2022-11-09T06:31:09;1.87;;;1.77;;
44862;SDS011;30597;49.628;10.850;2022-11-09T06:33:37;2.43;;;2.20;;
44862;SDS011;30597;49.628;10.850;2022-11-09T06:36:02;2.80;;;2.40;;
44862;SDS011;30597;49.628;10.850;2022-11-09T06:38:28;12.90;;;4.70;;
44862;SDS011;30597;49.628;10.850;2022-11-09T06:40:56;14.93;;;3.40;;
44862;SDS011;30597;49.628;10.850;2022-11-09T06:43:23;8.53;;;2.90;;
44862;SDS011;30597;49.628;10.850;2022-11-09T06:45:49;8.27;;;2.80;;
44862;SDS011;30597;49.628;10.850;2022-11-09T06:48:15;10.60;;;3.20;;
44862;SDS011;30597;49.628;10.850;2022-11-09T06:50:41;4.07;;;3.20;;
44862;SDS011;30597;49.628;10.850;2022-11-09T06:53:08;4.73;;;2.50;;
44862;SDS011;30597;49.628;10.850;2022-11-09T06:55:35;6.10;;;3.00;;
44862;SDS011;30597;49.628;10.850;2022-11-09T06:58:04;7.30;;;3.30;;
44862;SDS011;30597;49.628;10.850;2022-11-09T07:00:30;3.90;;;2.90;;
44862;SDS011;30597;49.628;10.850;2022-11-09T07:02:56;8.23;;;2.97;;
44862;SDS011;30597;49.628;10.850;2022-11-09T07:05:21;3.77;;;2.30;;
44862;SDS011;30597;49.628;10.850;2022-11-09T07:07:47;3.50;;;2.60;;
44862;SDS011;30597;49.628;10.850;2022-11-09T07:10:13;5.33;;;2.57;;
44862;SDS011;30597;49.628;10.850;2022-11-09T07:12:38;4.43;;;2.60;;
44862;SDS011;30597;49.628;10.850;2022-11-09T07:15:05;3.03;;;2.53;;
44862;SDS011;30597;49.628;10.850;2022-11-09T07:17:31;6.10;;;2.13;;
44862;SDS011;30597;49.628;10.850;2022-11-09T07:19:58;2.87;;;2.63;;
44862;SDS011;30597;49.628;10.850;2022-11-09T07:22:25;3.67;;;2.30;;
44862;SDS011;30597;49.628;10.850;2022-11-09T07:24:52;6.47;;;2.40;;
44862;SDS011;30597;49.628;10.850;2022-11-09T07:27:17;5.13;;;2.40;;
44862;SDS011;30597;49.628;10.850;2022-11-09T07:29:43;4.90;;;2.30;;
44862;SDS011;30597;49.628;10.850;2022-11-09T07:32:08;2.93;;;2.13;;
44862;SDS011;30597;49.628;10.850;2022-11-09T07:34:34;7.13;;;2.80;;
44862;SDS011;30597;49.628;10.850;2022-11-09T07:36:59;6.33;;;2.43;;
44862;SDS011;30597;49.628;10.850;2022-11-09T07:39:25;6.10;;;3.03;;
44862;SDS011;30597;49.628;10.850;2022-11-09T07:41:50;6.40;;;2.90;;
44862;SDS011;30597;49.628;10.850;2022-11-09T07:44:16;2.63;;;2.43;;
44862;SDS011;30597;49.628;10.850;2022-11-09T07:46:47;2.47;;;2.20;;
44862;SDS011;30597;49.628;10.850;2022-11-09T07:49:14;3.73;;;2.47;;
44862;SDS011;30597;49.628;10.850;2022-11-09T07:51:40;3.20;;;2.30;;
44862;SDS011;30597;49.628;10.850;2022-11-09T07:54:06;4.00;;;2.00;;
44862;SDS011;30597;49.628;10.850;2022-11-09T07:56:33;5.03;;;3.03;;
44862;SDS011;30597;49.628;10.850;2022-11-09T07:58:58;4.00;;;2.70;;
44862;SDS011;30597;49.628;10.850;2022-11-09T08:01:24;4.60;;;2.57;;
44862;SDS011;30597;49.628;10.850;2022-11-09T08:03:51;3.47;;;2.50;;
44862;SDS011;30597;49.628;10.850;2022-11-09T08:06:17;3.80;;;2.90;;
44862;SDS011;30597;49.628;10.850;2022-11-09T08:08:42;3.10;;;2.80;;
44862;SDS011;30597;49.628;10.850;2022-11-09T08:11:08;3.93;;;2.83;;
44862;SDS011;30597;49.628;10.850;2022-11-09T08:13:33;5.47;;;2.83;;
44862;SDS011;30597;49.628;10.850;2022-11-09T08:16:00;2.90;;;2.13;;
44862;SDS011;30597;49.628;10.850;2022-11-09T08:18:27;4.10;;;3.70;;
44862;SDS011;30597;49.628;10.850;2022-11-09T08:20:52;3.50;;;2.73;;
44862;SDS011;30597;49.628;10.850;2022-11-09T08:23:18;3.00;;;2.60;;
44862;SDS011;30597;49.628;10.850;2022-11-09T08:25:46;3.17;;;2.87;;
44862;SDS011;30597;49.628;10.850;2022-11-09T08:28:13;3.03;;;2.80;;
44862;SDS011;30597;49.628;10.850;2022-11-09T08:30:40;4.00;;;3.60;;
44862;SDS011;30597;49.628;10.850;2022-11-09T08:33:09;3.13;;;2.70;;
44862;SDS011;30597;49.628;10.850;2022-11-09T08:35:36;3.53;;;3.00;;
44862;SDS011;30597;49.628;10.850;2022-11-09T08:38:03;3.37;;;3.03;;
44862;SDS011;30597;49.628;10.850;2022-11-09T08:40:30;3.33;;;3.03;;
44862;SDS011;30597;49.628;10.850;2022-11-09T08:43:00;3.30;;;2.67;;
44862;SDS011;30597;49.628;10.850;2022-11-09T08:45:27;4.83;;;3.43;;
44862;SDS011;30597;49.628;10.850;2022-11-09T08:47:56;3.77;;;3.47;;
44862;SDS011;30597;49.628;10.850;2022-11-09T08:50:23;4.60;;;3.40;;
44862;SDS011;30597;49.628;10.850;2022-11-09T08:52:49;4.27;;;3.60;;
44862;SDS011;30597;49.628;10.850;2022-11-09T08:55:15;3.23;;;2.73;;
44862;SDS011;30597;49.628;10.850;2022-11-09T08:57:40;3.07;;;2.77;;
44862;SDS011;30597;49.628;10.850;2022-11-09T09:00:06;5.03;;;3.47;;
44862;SDS011;30597;49.628;10.850;2022-11-09T09:02:32;4.57;;;3.73;;
44862;SDS011;30597;49.628;10.850;2022-11-09T09:04:58;3.30;;;3.00;;
44862;SDS011;30597;49.628;10.850;2022-11-09T09:07:24;3.70;;;3.40;;
44862;SDS011;30597;49.628;10.850;2022-11-09T09:09:49;5.20;;;3.70;;
44862;SDS011;30597;49.628;10.850;2022-11-09T09:12:15;4.50;;;3.30;;
44862;SDS011;30597;49.628;10.850;2022-11-09T09:14:41;4.53;;;3.67;;
44862;SDS011;30597;49.628;10.850;2022-11-09T09:17:06;5.17;;;3.40;;
44862;SDS011;30597;49.628;10.850;2022-11-09T09:19:32;3.77;;;3.37;;
44862;SDS011;30597;49.628;10.850;2022-11-09T09:21:58;4.23;;;3.83;;
44862;SDS011;30597;49.628;10.850;2022-11-09T09:24:24;3.60;;;3.30;;
44862;SDS011;30597;49.628;10.850;2022-11-09T09:26:50;4.70;;;3.60;;
44862;SDS011;30597;49.628;10.850;2022-11-09T09:29:16;3.70;;;3.40;;
44862;SDS011;30597;49.628;10.850;2022-11-09T09:31:42;5.13;;;4.07;;
44862;SDS011;30597;49.628;10.850;2022-11-09T09:34:07;5.50;;;3.20;;
44862;SDS011;30597;49.628;10.850;2022-11-09T09:36:33;5.60;;;4.13;;
44862;SDS011;30597;49.628;10.850;2022-11-09T09:38:59;4.40;;;4.00;;
44862;SDS011;30597;49.628;10.850;2022-11-09T09:41:27;4.50;;;4.00;;
44862;SDS011;30597;49.628;10.850;2022-11-09T09:43:59;4.17;;;3.77;;
44862;SDS011;30597;49.628;10.850;2022-11-09T09:46:39;3.57;;;3.20;;
44862;SDS011;30597;49.628;10.850;2022-11-09T09:49:14;4.77;;;4.23;;
44862;SDS011;30597;49.628;10.850;2022-11-09T09:51:50;3.93;;;3.50;;
44862;SDS011;30597;49.628;10.850;2022-11-09T09:54:35;4.63;;;3.40;;
44862;SDS011;30597;49.628;10.850;2022-11-09T09:57:06;4.33;;;3.93;;
44862;SDS011;30597;49.628;10.850;2022-11-09T09:59:42;3.70;;;3.40;;
44862;SDS011;30597;49.628;10.850;2022-11-09T10:04:48;4.07;;;3.67;;
44862;SDS011;30597;49.628;10.850;2022-11-09T10:13:30;4.87;;;4.00;;
44862;SDS011;30597;49.628;10.850;2022-11-09T10:16:10;3.53;;;3.23;;
44862;SDS011;30597;49.628;10.850;2022-11-09T10:21:45;4.03;;;3.70;;
44862;SDS011;30597;49.628;10.850;2022-11-09T10:27:35;4.50;;;3.70;;
44862;SDS011;30597;49.628;10.850;2022-11-09T10:30:15;3.87;;;3.57;;
44862;SDS011;30597;49.628;10.850;2022-11-09T10:32:42;3.80;;;3.50;;
44862;SDS011;30597;49.628;10.850;2022-11-09T10:42:53;4.00;;;3.57;;
44862;SDS011;30597;49.628;10.850;2022-11-09T10:45:33;3.53;;;3.23;;
44862;SDS011;30597;49.628;10.850;2022-11-09T10:48:04;3.73;;;3.27;;
44862;SDS011;30597;49.628;10.850;2022-11-09T10:53:18;4.37;;;4.03;;
44862;SDS011;30597;49.628;10.850;2022-11-09T10:58:33;3.40;;;3.10;;
44862;SDS011;30597;49.628;10.850;2022-11-09T11:01:14;3.40;;;3.10;;
44862;SDS011;30597;49.628;10.850;2022-11-09T11:03:42;3.27;;;3.07;;
44862;SDS011;30597;49.628;10.850;2022-11-09T11:06:24;3.70;;;3.10;;
44862;SDS011;30597;49.628;10.850;2022-11-09T11:11:29;3.97;;;3.57;;
44862;SDS011;30597;49.628;10.850;2022-11-09T11:16:37;4.20;;;3.57;;
44862;SDS011;30597;49.628;10.850;2022-11-09T11:19:04;3.40;;;3.10;;
44862;SDS011;30597;49.628;10.850;2022-11-09T11:22:07;4.07;;;3.77;;
44862;SDS011;30597;49.628;10.850;2022-11-09T11:24:39;3.90;;;3.60;;
44862;SDS011;30597;49.628;10.850;2022-11-09T11:27:09;3.90;;;3.60;;
44862;SDS011;30597;49.628;10.850;2022-11-09T11:29:44;3.60;;;3.30;;
44862;SDS011;30597;49.628;10.850;2022-11-09T11:32:14;4.80;;;3.60;;
44862;SDS011;30597;49.628;10.850;2022-11-09T11:34:41;4.43;;;3.43;;
44862;SDS011;30597;49.628;10.850;2022-11-09T11:43:13;5.17;;;4.17;;
44862;SDS011;30597;49.628;10.850;2022-11-09T11:51:02;3.60;;;3.30;;
44862;SDS011;30597;49.628;10.850;2022-11-09T11:56:25;4.70;;;4.30;;
44862;SDS011;30597;49.628;10.850;2022-11-09T12:02:33;3.90;;;3.43;;
44862;SDS011;30597;49.628;10.850;2022-11-09T12:08:01;4.03;;;3.30;;
44862;SDS011;30597;49.628;10.850;2022-11-09T12:10:38;3.40;;;3.10;;
44862;SDS011;30597;49.628;10.850;2022-11-09T12:22:19;3.40;;;3.13;;
44862;SDS011;30597;49.628;10.850;2022-11-09T12:30:13;3.57;;;3.27;;
44862;SDS011;30597;49.628;10.850;2022-11-09T12:32:50;3.30;;;3.00;;
44862;SDS011;30597;49.628;10.850;2022-11-09T12:38:14;3.80;;;3.20;;
44862;SDS011;30597;49.628;10.850;2022-11-09T12:40:43;3.30;;;3.10;;
44862;SDS011;30597;49.628;10.850;2022-11-09T12:43:14;4.20;;;3.67;;
44862;SDS011;30597;49.628;10.850;2022-11-09T12:45:47;3.50;;;3.20;;
44862;SDS011;30597;49.628;10.850;2022-11-09T12:48:31;3.87;;;3.57;;
44862;SDS011;30597;49.628;10.850;2022-11-09T12:50:59;2.93;;;2.50;;
44862;SDS011;30597;49.628;10.850;2022-11-09T12:53:29;2.80;;;2.60;;
44862;SDS011;30597;49.628;10.850;2022-11-09T12:55:59;4.17;;;3.73;;
44862;SDS011;30597;49.628;10.850;2022-11-09T12:58:29;3.27;;;3.00;;
44862;SDS011;30597;49.628;10.850;2022-11-09T13:01:03;3.20;;;2.97;;
44862;SDS011;30597;49.628;10.850;2022-11-09T13:03:35;4.20;;;3.90;;
44862;SDS011;30597;49.628;10.850;2022-11-09T13:08:45;2.83;;;2.50;;
44862;SDS011;30597;49.628;10.850;2022-11-09T13:16:50;3.30;;;3.00;;
44862;SDS011;30597;49.628;10.850;2022-11-09T13:22:06;3.23;;;2.77;;
44862;SDS011;30597;49.628;10.850;2022-11-09T13:24:54;3.57;;;3.23;;
44862;SDS011;30597;49.628;10.850;2022-11-09T13:27:44;2.97;;;2.77;;
44862;SDS011;30597;49.628;10.850;2022-11-09T13:40:54;3.27;;;3.03;;
44862;SDS011;30597;49.628;10.850;2022-11-09T13:43:37;3.90;;;3.60;;
44862;SDS011;30597;49.628;10.850;2022-11-09T13:46:23;3.40;;;3.10;;
44862;SDS011;30597;49.628;10.850;2022-11-09T13:48:55;2.70;;;2.50;;
44862;SDS011;30597;49.628;10.850;2022-11-09T13:51:22;2.73;;;2.53;;
44862;SDS011;30597;49.628;10.850;2022-11-09T13:54:01;3.10;;;2.90;;
44862;SDS011;30597;49.628;10.850;2022-11-09T13:58:59;2.77;;;2.57;;
44862;SDS011;30597;49.628;10.850;2022-11-09T14:04:39;2.30;;;2.10;;
44862;SDS011;30597;49.628;10.850;2022-11-09T14:07:06;3.17;;;2.90;;
44862;SDS011;30597;49.628;10.850;2022-11-09T14:10:11;2.40;;;2.20;;
44862;SDS011;30597;49.628;10.850;2022-11-09T14:15:38;3.00;;;2.70;;
44862;SDS011;30597;49.628;10.850;2022-11-09T14:18:19;2.93;;;2.73;;
44862;SDS011;30597;49.628;10.850;2022-11-09T14:21:26;2.77;;;2.57;;
44862;SDS011;30597;49.628;10.850;2022-11-09T14:24:00;3.00;;;2.77;;
44862;SDS011;30597;49.628;10.850;2022-11-09T14:29:37;2.90;;;2.40;;
44862;SDS011;30597;49.628;10.850;2022-11-09T14:32:23;2.40;;;2.20;;
44862;SDS011;30597;49.628;10.850;2022-11-09T14:34:51;2.90;;;2.70;;
44862;SDS011;30597;49.628;10.850;2022-11-09T14:37:17;3.23;;;2.80;;
44862;SDS011;30597;49.628;10.850;2022-11-09T14:39:47;2.60;;;2.40;;
44862;SDS011;30597;49.628;10.850;2022-11-09T14:42:18;2.73;;;2.53;;
44862;SDS011;30597;49.628;10.850;2022-11-09T14:44:45;2.60;;;2.40;;
44862;SDS011;30597;49.628;10.850;2022-11-09T14:47:16;2.60;;;2.40;;
44862;SDS011;30597;49.628;10.850;2022-11-09T14:49:44;2.60;;;2.40;;
44862;SDS011;30597;49.628;10.850;2022-11-09T14:52:11;3.10;;;2.40;;
44862;SDS011;30597;49.628;10.850;2022-11-09T14:54:42;2.17;;;1.97;;
44862;SDS011;30597;49.628;10.850;2022-11-09T14:57:10;2.97;;;2.67;;
44862;SDS011;30597;49.628;10.850;2022-11-09T14:59:39;2.93;;;2.53;;
44862;SDS011;30597;49.628;10.850;2022-11-09T15:02:15;2.50;;;2.30;;
44862;SDS011;30597;49.628;10.850;2022-11-09T15:04:58;3.20;;;2.90;;
44862;SDS011;30597;49.628;10.850;2022-11-09T15:07:32;2.77;;;2.57;;
44862;SDS011;30597;49.628;10.850;2022-11-09T15:09:59;2.50;;;2.17;;
44862;SDS011;30597;49.628;10.850;2022-11-09T15:12:30;1.90;;;1.80;;
44862;SDS011;30597;49.628;10.850;2022-11-09T15:15:00;2.60;;;2.40;;
44862;SDS011;30597;49.628;10.850;2022-11-09T15:17:43;1.90;;;1.80;;
44862;SDS011;30597;49.628;10.850;2022-11-09T15:22:51;1.97;;;1.87;;
44862;SDS011;30597;49.628;10.850;2022-11-09T15:25:29;2.87;;;2.40;;
44862;SDS011;30597;49.628;10.850;2022-11-09T15:31:14;2.40;;;2.20;;
44862;SDS011;30597;49.628;10.850;2022-11-09T15:35:52;2.97;;;2.73;;
44862;SDS011;30597;49.628;10.850;2022-11-09T15:38:38;3.10;;;2.17;;
44862;SDS011;30597;49.628;10.850;2022-11-09T15:41:08;2.17;;;2.07;;
44862;SDS011;30597;49.628;10.850;2022-11-09T15:43:36;2.67;;;2.47;;
44862;SDS011;30597;49.628;10.850;2022-11-09T15:46:02;2.30;;;2.10;;
44862;SDS011;30597;49.628;10.850;2022-11-09T15:48:28;2.40;;;1.90;;
44862;SDS011;30597;49.628;10.850;2022-11-09T15:50:54;2.17;;;1.97;;
44862;SDS011;30597;49.628;10.850;2022-11-09T15:53:20;2.30;;;2.10;;
44862;SDS011;30597;49.628;10.850;2022-11-09T15:55:46;2.43;;;2.23;;
44862;SDS011;30597;49.628;10.850;2022-11-09T15:58:13;2.53;;;2.33;;
44862;SDS011;30597;49.628;10.850;2022-11-09T16:00:40;2.63;;;2.43;;
44862;SDS011;30597;49.628;10.850;2022-11-09T16:03:06;2.47;;;2.10;;
44862;SDS011;30597;49.628;10.850;2022-11-09T16:05:32;2.73;;;2.47;;
44862;SDS011;30597;49.628;10.850;2022-11-09T16:07:57;1.93;;;1.83;;
44862;SDS011;30597;49.628;10.850;2022-11-09T16:10:23;2.13;;;2.03;;
44862;SDS011;30597;49.628;10.850;2022-11-09T16:12:51;2.40;;;2.20;;
44862;SDS011;30597;49.628;10.850;2022-11-09T16:15:17;2.53;;;2.40;;
44862;SDS011;30597;49.628;10.850;2022-11-09T16:17:43;1.80;;;1.50;;
44862;SDS011;30597;49.628;10.850;2022-11-09T16:20:09;2.90;;;2.70;;
44862;SDS011;30597;49.628;10.850;2022-11-09T16:22:35;2.60;;;2.30;;
44862;SDS011;30597;49.628;10.850;2022-11-09T16:25:01;2.20;;;2.07;;
44862;SDS011;30597;49.628;10.850;2022-11-09T16:27:26;1.80;;;1.70;;
44862;SDS011;30597;49.628;10.850;2022-11-09T16:29:52;2.07;;;1.93;;
44862;SDS011;30597;49.628;10.850;2022-11-09T16:32:18;2.13;;;2.03;;
44862;SDS011;30597;49.628;10.850;2022-11-09T16:34:43;1.80;;;1.70;;